sensor_id;sensor_type;location;lat;lon;timestamp;pressure;altitude;pressure_sealevel;temperature;humidity
60479;BME280;46321;48.398;11.754;2022-11-25T00:00:42;96607.38;;;1.00;85.91
60479;BME280;46321;48.398;11.754;2022-11-25T00:03:07;96609.03;;;1.01;85.83
60479;BME280;46321;48.398;11.754;2022-11-25T00:05:32;96609.28;;;0.98;85.65
60479;BME280;46321;48.398;11.754;2022-11-25T00:07:57;96615.31;;;0.98;86.05
60479;BME280;46321;48.398;11.754;2022-11-25T00:10:23;96589.69;;;0.92;85.29
60479;BME280;46321;48.398;11.754;2022-11-25T00:12:48;96608.44;;;0.97;85.39
60479;BME280;46321;48.398;11.754;2022-11-25T00:15:13;96604.59;;;0.90;85.21
60479;BME280;46321;48.398;11.754;2022-11-25T00:17:39;96611.50;;;0.91;85.92
60479;BME280;46321;48.398;11.754;2022-11-25T00:20:04;96612.53;;;0.88;85.78
60479;BME280;46321;48.398;11.754;2022-11-25T00:22:30;96609.53;;;0.82;86.15
60479;BME280;46321;48.398;11.754;2022-11-25T00:24:55;96613.91;;;0.81;85.92
60479;BME280;46321;48.398;11.754;2022-11-25T00:27:20;96623.63;;;0.79;86.17
60479;BME280;46321;48.398;11.754;2022-11-25T00:29:46;96622.91;;;0.77;86.04
60479;BME280;46321;48.398;11.754;2022-11-25T00:32:11;96634.28;;;0.76;86.27
60479;BME280;46321;48.398;11.754;2022-11-25T00:34:36;96632.59;;;0.75;86.65
60479;BME280;46321;48.398;11.754;2022-11-25T00:37:01;96631.28;;;0.69;87.01
60479;BME280;46321;48.398;11.754;2022-11-25T00:39:27;96633.56;;;0.74;86.97
60479;BME280;46321;48.398;11.754;2022-11-25T00:41:52;96638.97;;;0.71;86.86
60479;BME280;46321;48.398;11.754;2022-11-25T00:44:36;96629.72;;;0.66;86.82
60479;BME280;46321;48.398;11.754;2022-11-25T00:47:17;96631.69;;;0.63;86.82
60479;BME280;46321;48.398;11.754;2022-11-25T00:49:45;96625.69;;;0.62;87.21
60479;BME280;46321;48.398;11.754;2022-11-25T00:52:17;96630.44;;;0.68;87.37
60479;BME280;46321;48.398;11.754;2022-11-25T00:54:44;96628.78;;;0.67;87.34
60479;BME280;46321;48.398;11.754;2022-11-25T00:57:11;96617.88;;;0.62;86.85
60479;BME280;46321;48.398;11.754;2022-11-25T00:59:36;96623.88;;;0.63;86.86
60479;BME280;46321;48.398;11.754;2022-11-25T01:02:01;96621.50;;;0.60;86.73
60479;BME280;46321;48.398;11.754;2022-11-25T01:04:27;96623.28;;;0.59;86.84
60479;BME280;46321;48.398;11.754;2022-11-25T01:06:53;96618.91;;;0.60;86.45
60479;BME280;46321;48.398;11.754;2022-11-25T01:09:20;96618.31;;;0.56;86.22
60479;BME280;46321;48.398;11.754;2022-11-25T01:11:49;96623.41;;;0.57;86.65
60479;BME280;46321;48.398;11.754;2022-11-25T01:14:14;96626.94;;;0.56;87.01
60479;BME280;46321;48.398;11.754;2022-11-25T01:16:40;96616.63;;;0.55;86.44
60479;BME280;46321;48.398;11.754;2022-11-25T01:19:05;96611.53;;;0.53;86.42
60479;BME280;46321;48.398;11.754;2022-11-25T01:21:32;96612.91;;;0.46;86.19
60479;BME280;46321;48.398;11.754;2022-11-25T01:23:59;96619.75;;;0.47;86.36
60479;BME280;46321;48.398;11.754;2022-11-25T01:26:25;96616.44;;;0.45;86.30
60479;BME280;46321;48.398;11.754;2022-11-25T01:28:56;96617.28;;;0.45;86.35
60479;BME280;46321;48.398;11.754;2022-11-25T01:31:23;96618.22;;;0.44;86.33
60479;BME280;46321;48.398;11.754;2022-11-25T01:33:56;96620.13;;;0.42;86.35
60479;BME280;46321;48.398;11.754;2022-11-25T01:36:22;96614.28;;;0.39;86.65
60479;BME280;46321;48.398;11.754;2022-11-25T01:38:52;96618.63;;;0.38;86.52
60479;BME280;46321;48.398;11.754;2022-11-25T01:41:20;96617.91;;;0.36;86.50
60479;BME280;46321;48.398;11.754;2022-11-25T01:44:09;96621.91;;;0.29;86.63
60479;BME280;46321;48.398;11.754;2022-11-25T01:49:25;96615.66;;;0.18;86.74
60479;BME280;46321;48.398;11.754;2022-11-25T01:52:11;96610.69;;;0.15;86.26
60479;BME280;46321;48.398;11.754;2022-11-25T01:54:48;96612.13;;;0.19;86.77
60479;BME280;46321;48.398;11.754;2022-11-25T01:57:22;96614.09;;;0.16;87.64
60479;BME280;46321;48.398;11.754;2022-11-25T01:59:50;96608.28;;;0.12;87.07
60479;BME280;46321;48.398;11.754;2022-11-25T02:02:18;96620.38;;;0.13;86.81
60479;BME280;46321;48.398;11.754;2022-11-25T02:04:45;96603.06;;;0.12;86.80
60479;BME280;46321;48.398;11.754;2022-11-25T02:07:19;96608.28;;;0.12;86.92
60479;BME280;46321;48.398;11.754;2022-11-25T02:09:47;96609.25;;;0.11;86.85
60479;BME280;46321;48.398;11.754;2022-11-25T02:12:15;96607.34;;;0.13;86.90
60479;BME280;46321;48.398;11.754;2022-11-25T02:14:42;96608.50;;;0.09;87.19
60479;BME280;46321;48.398;11.754;2022-11-25T02:17:08;96606.84;;;0.08;87.04
60479;BME280;46321;48.398;11.754;2022-11-25T02:22:20;96612.88;;;0.08;87.04
60479;BME280;46321;48.398;11.754;2022-11-25T02:24:49;96603.31;;;0.09;87.27
60479;BME280;46321;48.398;11.754;2022-11-25T02:27:16;96600.78;;;0.07;86.78
60479;BME280;46321;48.398;11.754;2022-11-25T02:29:42;96606.31;;;0.03;87.12
60479;BME280;46321;48.398;11.754;2022-11-25T02:32:07;96599.22;;;0.05;87.34
60479;BME280;46321;48.398;11.754;2022-11-25T02:34:33;96597.25;;;0.08;87.34
60479;BME280;46321;48.398;11.754;2022-11-25T02:36:58;96590.38;;;0.07;87.26
60479;BME280;46321;48.398;11.754;2022-11-25T02:39:24;96577.78;;;0.01;87.45
60479;BME280;46321;48.398;11.754;2022-11-25T02:41:55;96579.66;;;-0.01;87.31
60479;BME280;46321;48.398;11.754;2022-11-25T02:44:21;96594.75;;;0.07;87.09
60479;BME280;46321;48.398;11.754;2022-11-25T02:46:47;96593.09;;;0.06;87.36
60479;BME280;46321;48.398;11.754;2022-11-25T02:49:12;96596.22;;;0.11;86.91
60479;BME280;46321;48.398;11.754;2022-11-25T02:51:40;96596.22;;;0.11;86.69
60479;BME280;46321;48.398;11.754;2022-11-25T02:54:06;96597.03;;;0.11;86.99
60479;BME280;46321;48.398;11.754;2022-11-25T02:56:33;96598.81;;;0.11;86.90
60479;BME280;46321;48.398;11.754;2022-11-25T02:58:59;96602.97;;;0.14;86.72
60479;BME280;46321;48.398;11.754;2022-11-25T03:01:26;96613.72;;;0.09;86.63
60479;BME280;46321;48.398;11.754;2022-11-25T03:03:51;96607.03;;;0.05;86.35
60479;BME280;46321;48.398;11.754;2022-11-25T03:06:17;96614.53;;;0.09;86.71
60479;BME280;46321;48.398;11.754;2022-11-25T03:08:42;96601.44;;;0.11;86.74
60479;BME280;46321;48.398;11.754;2022-11-25T03:11:07;96599.75;;;0.10;87.22
60479;BME280;46321;48.398;11.754;2022-11-25T03:13:33;96605.38;;;0.04;86.87
60479;BME280;46321;48.398;11.754;2022-11-25T03:15:58;96599.78;;;-0.03;86.70
60479;BME280;46321;48.398;11.754;2022-11-25T03:18:23;96599.78;;;-0.03;86.50
60479;BME280;46321;48.398;11.754;2022-11-25T03:20:52;96595.41;;;-0.03;86.41
60479;BME280;46321;48.398;11.754;2022-11-25T03:23:18;96597.47;;;0.05;86.43
60479;BME280;46321;48.398;11.754;2022-11-25T03:25:43;96590.38;;;0.07;86.51
60479;BME280;46321;48.398;11.754;2022-11-25T03:28:09;96592.25;;;0.05;86.22
60479;BME280;46321;48.398;11.754;2022-11-25T03:30:34;96592.50;;;0.02;86.30
60479;BME280;46321;48.398;11.754;2022-11-25T03:32:59;96595.09;;;0.02;86.18
60479;BME280;46321;48.398;11.754;2022-11-25T03:35:25;96589.25;;;-0.02;86.15
60479;BME280;46321;48.398;11.754;2022-11-25T03:37:50;96589.78;;;0.04;85.98
60479;BME280;46321;48.398;11.754;2022-11-25T03:40:15;96596.97;;;0.00;85.93
60479;BME280;46321;48.398;11.754;2022-11-25T03:42:41;96604.53;;;0.03;86.34
60479;BME280;46321;48.398;11.754;2022-11-25T03:45:09;96609.44;;;0.08;86.21
60479;BME280;46321;48.398;11.754;2022-11-25T03:47:34;96607.75;;;0.07;86.42
60479;BME280;46321;48.398;11.754;2022-11-25T03:50:00;96606.22;;;0.04;86.25
60479;BME280;46321;48.398;11.754;2022-11-25T03:52:25;96610.34;;;0.07;86.78
60479;BME280;46321;48.398;11.754;2022-11-25T03:54:51;96607.56;;;0.10;86.15
60479;BME280;46321;48.398;11.754;2022-11-25T03:57:16;96602.91;;;0.02;86.39
60479;BME280;46321;48.398;11.754;2022-11-25T03:59:41;96606.63;;;0.11;86.57
60479;BME280;46321;48.398;11.754;2022-11-25T04:02:07;96607.31;;;0.26;87.15
60479;BME280;46321;48.398;11.754;2022-11-25T04:04:32;96608.06;;;0.28;87.05
60479;BME280;46321;48.398;11.754;2022-11-25T04:06:57;96611.59;;;0.27;86.86
60479;BME280;46321;48.398;11.754;2022-11-25T04:09:23;96609.28;;;0.22;86.88
60479;BME280;46321;48.398;11.754;2022-11-25T04:11:50;96619.81;;;0.21;87.25
60479;BME280;46321;48.398;11.754;2022-11-25T04:14:34;96621.59;;;0.20;86.36
60479;BME280;46321;48.398;11.754;2022-11-25T04:16:59;96613.78;;;0.20;86.39
60479;BME280;46321;48.398;11.754;2022-11-25T04:19:24;96617.22;;;0.21;86.31
60479;BME280;46321;48.398;11.754;2022-11-25T04:21:50;96620.38;;;0.13;86.14
60479;BME280;46321;48.398;11.754;2022-11-25T04:24:15;96624.50;;;0.16;86.23
60479;BME280;46321;48.398;11.754;2022-11-25T04:26:41;96632.44;;;0.14;86.14
60479;BME280;46321;48.398;11.754;2022-11-25T04:29:06;96638.47;;;0.15;86.24
60479;BME280;46321;48.398;11.754;2022-11-25T04:31:31;96636.06;;;0.11;86.47
60479;BME280;46321;48.398;11.754;2022-11-25T04:33:57;96630.88;;;0.11;86.51
60479;BME280;46321;48.398;11.754;2022-11-25T04:36:22;96628.28;;;0.11;86.58
60479;BME280;46321;48.398;11.754;2022-11-25T04:38:48;96624.53;;;0.03;86.37
60479;BME280;46321;48.398;11.754;2022-11-25T04:58:28;96633.91;;;0.05;86.07
60479;BME280;46321;48.398;11.754;2022-11-25T05:08:43;96626.53;;;-0.01;86.12
60479;BME280;46321;48.398;11.754;2022-11-25T05:12:22;96617.78;;;0.00;85.97
60479;BME280;46321;48.398;11.754;2022-11-25T05:15:26;96612.19;;;-0.07;85.79
60479;BME280;46321;48.398;11.754;2022-11-25T05:17:53;96635.06;;;0.01;85.70
60479;BME280;46321;48.398;11.754;2022-11-25T05:20:18;96609.16;;;-0.14;85.94
60479;BME280;46321;48.398;11.754;2022-11-25T05:22:43;96609.25;;;-0.15;86.20
60479;BME280;46321;48.398;11.754;2022-11-25T05:25:09;96612.38;;;-0.10;85.97
60479;BME280;46321;48.398;11.754;2022-11-25T05:27:34;96631.53;;;0.02;86.22
60479;BME280;46321;48.398;11.754;2022-11-25T05:30:00;96627.88;;;-0.08;86.23
60479;BME280;46321;48.398;11.754;2022-11-25T05:32:25;96617.06;;;-0.15;86.09
60479;BME280;46321;48.398;11.754;2022-11-25T05:34:51;96610.41;;;-0.19;85.98
60479;BME280;46321;48.398;11.754;2022-11-25T05:37:16;96630.16;;;-0.17;86.23
60479;BME280;46321;48.398;11.754;2022-11-25T05:39:41;96621.63;;;-0.19;86.00
60479;BME280;46321;48.398;11.754;2022-11-25T05:42:07;96624.97;;;-0.17;86.05
60479;BME280;46321;48.398;11.754;2022-11-25T05:44:32;96619.66;;;-0.15;85.98
60479;BME280;46321;48.398;11.754;2022-11-25T05:46:57;96608.75;;;-0.20;85.88
60479;BME280;46321;48.398;11.754;2022-11-25T05:49:22;96607.25;;;-0.25;86.30
60479;BME280;46321;48.398;11.754;2022-11-25T05:51:48;96622.97;;;-0.26;86.04
60479;BME280;46321;48.398;11.754;2022-11-25T05:54:13;96621.00;;;-0.36;85.76
60479;BME280;46321;48.398;11.754;2022-11-25T05:56:39;96624.31;;;-0.33;85.84
60479;BME280;46321;48.398;11.754;2022-11-25T05:59:05;96619.66;;;-0.41;85.91
60479;BME280;46321;48.398;11.754;2022-11-25T06:01:30;96638.81;;;-0.29;85.74
60479;BME280;46321;48.398;11.754;2022-11-25T06:04:00;96621.13;;;-0.37;85.93
60479;BME280;46321;48.398;11.754;2022-11-25T06:06:25;96629.94;;;-0.40;85.64
60479;BME280;46321;48.398;11.754;2022-11-25T06:08:50;96617.78;;;-0.39;85.74
60479;BME280;46321;48.398;11.754;2022-11-25T06:11:16;96616.53;;;-0.47;85.67
60479;BME280;46321;48.398;11.754;2022-11-25T06:13:42;96618.38;;;-0.49;85.18
60479;BME280;46321;48.398;11.754;2022-11-25T06:16:15;96634.84;;;-0.48;85.34
60479;BME280;46321;48.398;11.754;2022-11-25T06:18:43;96633.91;;;-0.47;85.39
60479;BME280;46321;48.398;11.754;2022-11-25T06:21:10;96622.88;;;-0.51;85.58
60479;BME280;46321;48.398;11.754;2022-11-25T06:23:36;96631.81;;;-0.55;85.48
60479;BME280;46321;48.398;11.754;2022-11-25T06:26:19;96637.44;;;-0.48;85.04
60479;BME280;46321;48.398;11.754;2022-11-25T06:28:45;96634.41;;;-0.55;85.21
60479;BME280;46321;48.398;11.754;2022-11-25T06:31:13;96644.41;;;-0.49;85.17
60479;BME280;46321;48.398;11.754;2022-11-25T06:33:40;96645.84;;;-0.44;85.31
60479;BME280;46321;48.398;11.754;2022-11-25T06:36:07;96639.00;;;-0.45;85.53
60479;BME280;46321;48.398;11.754;2022-11-25T06:38:33;96657.84;;;-0.42;85.26
60479;BME280;46321;48.398;11.754;2022-11-25T06:41:03;96645.34;;;-0.50;85.86
60479;BME280;46321;48.398;11.754;2022-11-25T06:43:29;96660.31;;;-0.40;86.06
60479;BME280;46321;48.398;11.754;2022-11-25T06:46:01;96650.44;;;-0.48;85.70
60479;BME280;46321;48.398;11.754;2022-11-25T06:48:27;96657.53;;;-0.37;86.05
60479;BME280;46321;48.398;11.754;2022-11-25T06:50:59;96652.22;;;-0.36;85.99
60479;BME280;46321;48.398;11.754;2022-11-25T06:53:26;96646.81;;;-0.32;86.41
60479;BME280;46321;48.398;11.754;2022-11-25T06:56:04;96664.13;;;-0.18;86.61
60479;BME280;46321;48.398;11.754;2022-11-25T06:58:30;96641.84;;;-0.22;86.92
60479;BME280;46321;48.398;11.754;2022-11-25T07:01:00;96651.00;;;-0.04;86.92
60479;BME280;46321;48.398;11.754;2022-11-25T07:03:26;96648.50;;;0.08;86.95
60479;BME280;46321;48.398;11.754;2022-11-25T07:05:54;96645.13;;;0.32;87.52
60479;BME280;46321;48.398;11.754;2022-11-25T07:08:20;96632.63;;;0.37;87.43
60479;BME280;46321;48.398;11.754;2022-11-25T07:10:48;96625.81;;;0.48;87.50
60479;BME280;46321;48.398;11.754;2022-11-25T07:13:13;96628.50;;;0.59;87.73
60479;BME280;46321;48.398;11.754;2022-11-25T07:15:38;96631.63;;;0.64;87.44
60479;BME280;46321;48.398;11.754;2022-11-25T07:18:04;96633.97;;;0.81;87.56
60479;BME280;46321;48.398;11.754;2022-11-25T07:20:29;96642.78;;;0.91;87.71
60479;BME280;46321;48.398;11.754;2022-11-25T07:22:56;96634.72;;;1.19;87.51
60479;BME280;46321;48.398;11.754;2022-11-25T07:25:21;96661.41;;;1.58;86.76
60479;BME280;46321;48.398;11.754;2022-11-25T07:27:46;96653.72;;;1.68;86.11
60479;BME280;46321;48.398;11.754;2022-11-25T07:30:12;96644.84;;;1.82;85.25
60479;BME280;46321;48.398;11.754;2022-11-25T07:32:37;96648.88;;;1.87;84.51
60479;BME280;46321;48.398;11.754;2022-11-25T07:35:03;96652.56;;;1.96;83.89
60479;BME280;46321;48.398;11.754;2022-11-25T07:37:28;96652.47;;;2.09;83.23
60479;BME280;46321;48.398;11.754;2022-11-25T07:39:53;96655.09;;;2.32;82.80
60479;BME280;46321;48.398;11.754;2022-11-25T07:42:19;96643.69;;;2.44;81.67
60479;BME280;46321;48.398;11.754;2022-11-25T07:44:44;96656.63;;;2.46;80.70
60479;BME280;46321;48.398;11.754;2022-11-25T07:47:09;96657.94;;;2.40;80.76
60479;BME280;46321;48.398;11.754;2022-11-25T07:49:35;96656.28;;;2.39;80.31
60479;BME280;46321;48.398;11.754;2022-11-25T07:52:00;96661.25;;;2.42;80.65
60479;BME280;46321;48.398;11.754;2022-11-25T07:54:27;96672.81;;;2.39;80.48
60479;BME280;46321;48.398;11.754;2022-11-25T07:56:52;96667.69;;;2.38;80.55
60479;BME280;46321;48.398;11.754;2022-11-25T07:59:20;96644.53;;;2.22;80.47
60479;BME280;46321;48.398;11.754;2022-11-25T08:01:48;96657.25;;;2.15;80.44
60479;BME280;46321;48.398;11.754;2022-11-25T08:04:14;96660.44;;;2.19;80.89
60479;BME280;46321;48.398;11.754;2022-11-25T08:06:43;96658.06;;;2.15;81.26
60479;BME280;46321;48.398;11.754;2022-11-25T08:09:13;96655.69;;;2.12;81.39
60479;BME280;46321;48.398;11.754;2022-11-25T08:11:39;96663.41;;;2.25;80.94
60479;BME280;46321;48.398;11.754;2022-11-25T08:14:07;96680.03;;;2.36;80.98
60479;BME280;46321;48.398;11.754;2022-11-25T08:16:34;96669.69;;;2.34;80.33
60479;BME280;46321;48.398;11.754;2022-11-25T08:19:01;96684.91;;;2.52;80.20
60479;BME280;46321;48.398;11.754;2022-11-25T08:21:27;96686.19;;;2.58;79.86
60479;BME280;46321;48.398;11.754;2022-11-25T08:23:53;96671.69;;;2.65;79.72
60479;BME280;46321;48.398;11.754;2022-11-25T08:26:27;96680.25;;;2.67;79.51
60479;BME280;46321;48.398;11.754;2022-11-25T08:29:05;96686.44;;;2.78;79.12
60479;BME280;46321;48.398;11.754;2022-11-25T08:34:31;96666.97;;;4.43;77.18
60479;BME280;46321;48.398;11.754;2022-11-25T08:36:57;96669.75;;;4.62;74.68
60479;BME280;46321;48.398;11.754;2022-11-25T08:39:22;96671.38;;;4.43;73.69
60479;BME280;46321;48.398;11.754;2022-11-25T08:41:47;96685.00;;;4.37;74.03
60479;BME280;46321;48.398;11.754;2022-11-25T08:44:13;96686.56;;;4.18;74.11
60479;BME280;46321;48.398;11.754;2022-11-25T08:46:39;96667.97;;;3.99;74.59
60479;BME280;46321;48.398;11.754;2022-11-25T08:49:06;96684.06;;;3.95;74.56
60479;BME280;46321;48.398;11.754;2022-11-25T08:51:34;96676.41;;;3.82;74.95
60479;BME280;46321;48.398;11.754;2022-11-25T08:54:00;96691.44;;;3.80;75.80
60479;BME280;46321;48.398;11.754;2022-11-25T08:56:25;96689.66;;;3.80;76.01
60479;BME280;46321;48.398;11.754;2022-11-25T08:58:51;96673.81;;;3.60;76.91
60479;BME280;46321;48.398;11.754;2022-11-25T09:01:18;96705.59;;;3.77;77.00
60479;BME280;46321;48.398;11.754;2022-11-25T09:03:48;96709.06;;;3.77;76.81
60479;BME280;46321;48.398;11.754;2022-11-25T09:06:15;96717.69;;;3.89;76.93
60479;BME280;46321;48.398;11.754;2022-11-25T09:08:41;96706.25;;;3.91;76.29
60479;BME280;46321;48.398;11.754;2022-11-25T09:11:13;96728.09;;;4.22;76.31
60479;BME280;46321;48.398;11.754;2022-11-25T09:13:39;96727.84;;;4.98;78.81
60479;BME280;46321;48.398;11.754;2022-11-25T09:16:05;96719.22;;;5.47;75.28
60479;BME280;46321;48.398;11.754;2022-11-25T09:18:30;96729.19;;;5.83;73.88
60479;BME280;46321;48.398;11.754;2022-11-25T09:20:57;96735.03;;;6.07;71.78
60479;BME280;46321;48.398;11.754;2022-11-25T09:23:23;96741.34;;;6.24;71.66
60479;BME280;46321;48.398;11.754;2022-11-25T09:25:53;96744.66;;;6.26;70.13
60479;BME280;46321;48.398;11.754;2022-11-25T09:28:20;96747.56;;;6.33;69.93
60479;BME280;46321;48.398;11.754;2022-11-25T09:30:45;96740.81;;;6.59;69.42
60479;BME280;46321;48.398;11.754;2022-11-25T09:33:11;96743.00;;;7.30;68.72
60479;BME280;46321;48.398;11.754;2022-11-25T09:35:36;96740.94;;;7.88;66.43
60479;BME280;46321;48.398;11.754;2022-11-25T09:38:01;96730.94;;;9.92;63.94
60479;BME280;46321;48.398;11.754;2022-11-25T09:40:42;96728.88;;;12.36;54.59
60479;BME280;46321;48.398;11.754;2022-11-25T09:43:23;96722.91;;;13.84;49.67
60479;BME280;46321;48.398;11.754;2022-11-25T09:54:40;96711.69;;;15.17;42.75
60479;BME280;46321;48.398;11.754;2022-11-25T09:57:20;96720.22;;;15.55;43.41
60479;BME280;46321;48.398;11.754;2022-11-25T10:05:33;96714.91;;;16.77;39.08
60479;BME280;46321;48.398;11.754;2022-11-25T10:08:08;96713.94;;;17.31;37.91
60479;BME280;46321;48.398;11.754;2022-11-25T10:10:46;96714.75;;;16.45;38.37
60479;BME280;46321;48.398;11.754;2022-11-25T10:13:40;96721.66;;;15.57;40.32
60479;BME280;46321;48.398;11.754;2022-11-25T10:19:01;96714.31;;;17.74;37.29
60479;BME280;46321;48.398;11.754;2022-11-25T10:21:27;96711.09;;;17.91;35.19
60479;BME280;46321;48.398;11.754;2022-11-25T10:23:52;96707.09;;;18.77;34.41
60479;BME280;46321;48.398;11.754;2022-11-25T10:26:21;96708.47;;;19.36;32.52
60479;BME280;46321;48.398;11.754;2022-11-25T10:29:05;96703.19;;;19.29;33.40
60479;BME280;46321;48.398;11.754;2022-11-25T10:31:37;96699.03;;;20.19;31.47
60479;BME280;46321;48.398;11.754;2022-11-25T10:34:12;96698.63;;;21.12;30.52
60479;BME280;46321;48.398;11.754;2022-11-25T10:36:41;96703.25;;;20.51;30.96
60479;BME280;46321;48.398;11.754;2022-11-25T10:39:20;96700.31;;;20.77;30.15
60479;BME280;46321;48.398;11.754;2022-11-25T10:41:55;96692.91;;;20.96;29.72
60479;BME280;46321;48.398;11.754;2022-11-25T10:44:29;96687.53;;;21.67;29.21
60479;BME280;46321;48.398;11.754;2022-11-25T10:50:14;96679.81;;;21.41;28.10
60479;BME280;46321;48.398;11.754;2022-11-25T10:52:47;96689.56;;;21.59;28.68
60479;BME280;46321;48.398;11.754;2022-11-25T10:55:26;96693.25;;;21.70;27.92
60479;BME280;46321;48.398;11.754;2022-11-25T10:57:52;96688.81;;;21.93;28.44
60479;BME280;46321;48.398;11.754;2022-11-25T11:00:33;96689.88;;;21.92;28.79
60479;BME280;46321;48.398;11.754;2022-11-25T11:03:22;96695.06;;;21.82;27.76
60479;BME280;46321;48.398;11.754;2022-11-25T11:05:51;96699.69;;;21.99;27.93
60479;BME280;46321;48.398;11.754;2022-11-25T11:08:28;96689.47;;;22.18;28.37
60479;BME280;46321;48.398;11.754;2022-11-25T11:11:19;96682.06;;;23.32;26.48
60479;BME280;46321;48.398;11.754;2022-11-25T11:13:47;96687.31;;;24.28;25.60
60479;BME280;46321;48.398;11.754;2022-11-25T11:16:35;96682.69;;;23.40;26.58
60479;BME280;46321;48.398;11.754;2022-11-25T11:19:02;96678.19;;;24.93;24.51
60479;BME280;46321;48.398;11.754;2022-11-25T11:21:31;96672.09;;;25.13;24.41
60479;BME280;46321;48.398;11.754;2022-11-25T11:23:57;96679.38;;;25.18;23.57
60479;BME280;46321;48.398;11.754;2022-11-25T11:26:27;96665.72;;;25.77;22.67
60479;BME280;46321;48.398;11.754;2022-11-25T11:28:58;96663.47;;;25.43;22.73
60479;BME280;46321;48.398;11.754;2022-11-25T11:31:30;96656.78;;;25.87;22.74
60479;BME280;46321;48.398;11.754;2022-11-25T11:34:22;96653.28;;;27.56;21.10
60479;BME280;46321;48.398;11.754;2022-11-25T11:37:12;96662.97;;;27.32;20.98
60479;BME280;46321;48.398;11.754;2022-11-25T11:45:40;96666.13;;;17.42;33.57
60479;BME280;46321;48.398;11.754;2022-11-25T11:51:00;96663.22;;;16.31;35.70
60479;BME280;46321;48.398;11.754;2022-11-25T11:53:39;96674.81;;;15.34;38.08
60479;BME280;46321;48.398;11.754;2022-11-25T11:56:28;96681.78;;;15.22;38.46
60479;BME280;46321;48.398;11.754;2022-11-25T12:01:48;96685.38;;;14.01;41.74
60479;BME280;46321;48.398;11.754;2022-11-25T12:04:23;96684.22;;;13.44;42.77
60479;BME280;46321;48.398;11.754;2022-11-25T12:07:14;96685.09;;;13.30;43.02
60479;BME280;46321;48.398;11.754;2022-11-25T12:09:49;96685.78;;;12.10;46.19
60479;BME280;46321;48.398;11.754;2022-11-25T12:12:17;96686.78;;;12.09;47.16
60479;BME280;46321;48.398;11.754;2022-11-25T12:15:31;96683.19;;;12.71;46.14
60479;BME280;46321;48.398;11.754;2022-11-25T12:17:57;96683.19;;;12.71;45.73
60479;BME280;46321;48.398;11.754;2022-11-25T12:23:51;96680.91;;;12.83;46.68
60479;BME280;46321;48.398;11.754;2022-11-25T12:26:25;96680.50;;;13.01;47.18
60479;BME280;46321;48.398;11.754;2022-11-25T12:29:03;96678.00;;;13.00;47.17
60479;BME280;46321;48.398;11.754;2022-11-25T12:31:36;96676.31;;;12.62;46.56
60479;BME280;46321;48.398;11.754;2022-11-25T12:34:33;96675.13;;;12.49;47.04
60479;BME280;46321;48.398;11.754;2022-11-25T12:37:15;96678.88;;;12.55;48.25
60479;BME280;46321;48.398;11.754;2022-11-25T12:40:06;96673.47;;;12.78;49.01
60479;BME280;46321;48.398;11.754;2022-11-25T12:42:38;96682.88;;;12.96;48.09
60479;BME280;46321;48.398;11.754;2022-11-25T12:45:23;96678.66;;;13.17;48.64
60479;BME280;46321;48.398;11.754;2022-11-25T12:47:49;96675.22;;;13.23;48.52
60479;BME280;46321;48.398;11.754;2022-11-25T12:50:17;96675.41;;;13.22;47.92
60479;BME280;46321;48.398;11.754;2022-11-25T12:55:30;96683.72;;;12.97;47.23
60479;BME280;46321;48.398;11.754;2022-11-25T13:03:48;96685.84;;;12.56;47.69
60479;BME280;46321;48.398;11.754;2022-11-25T13:12:45;96678.31;;;12.14;50.17
60479;BME280;46321;48.398;11.754;2022-11-25T13:17:45;96678.09;;;12.00;50.55
60479;BME280;46321;48.398;11.754;2022-11-25T13:25:30;96677.50;;;11.90;51.61
60479;BME280;46321;48.398;11.754;2022-11-25T13:27:57;96684.34;;;11.84;51.04
60479;BME280;46321;48.398;11.754;2022-11-25T13:38:36;96696.59;;;11.38;53.18
60479;BME280;46321;48.398;11.754;2022-11-25T13:41:20;96693.16;;;11.29;53.29
60479;BME280;46321;48.398;11.754;2022-11-25T13:48:58;96704.25;;;11.01;54.33
60479;BME280;46321;48.398;11.754;2022-11-25T13:51:24;96702.81;;;10.90;54.34
60479;BME280;46321;48.398;11.754;2022-11-25T13:53:56;96699.03;;;10.76;55.72
60479;BME280;46321;48.398;11.754;2022-11-25T13:56:27;96698.72;;;10.79;55.96
60479;BME280;46321;48.398;11.754;2022-11-25T14:01:56;96703.03;;;10.72;56.82
60479;BME280;46321;48.398;11.754;2022-11-25T14:07:29;96708.88;;;10.59;57.37
60479;BME280;46321;48.398;11.754;2022-11-25T14:10:24;96708.72;;;10.52;57.77
60479;BME280;46321;48.398;11.754;2022-11-25T14:15:53;96712.53;;;10.41;58.42
60479;BME280;46321;48.398;11.754;2022-11-25T14:21:12;96715.53;;;10.29;58.72
60479;BME280;46321;48.398;11.754;2022-11-25T14:23:48;96717.84;;;10.16;58.65
60479;BME280;46321;48.398;11.754;2022-11-25T14:26:29;96730.59;;;10.12;58.87
60479;BME280;46321;48.398;11.754;2022-11-25T14:29:04;96728.41;;;9.99;58.66
60479;BME280;46321;48.398;11.754;2022-11-25T14:31:37;96737.72;;;10.03;58.98
60479;BME280;46321;48.398;11.754;2022-11-25T14:34:16;96741.31;;;10.02;59.25
60479;BME280;46321;48.398;11.754;2022-11-25T14:36:49;96742.97;;;9.87;60.51
60479;BME280;46321;48.398;11.754;2022-11-25T14:39:20;96747.59;;;9.84;60.54
60479;BME280;46321;48.398;11.754;2022-11-25T14:42:05;96746.09;;;9.73;61.86
60479;BME280;46321;48.398;11.754;2022-11-25T14:47:03;96758.66;;;9.71;61.23
60479;BME280;46321;48.398;11.754;2022-11-25T14:49:50;96762.75;;;9.57;61.33
60479;BME280;46321;48.398;11.754;2022-11-25T14:52:26;96754.66;;;9.50;61.79
60479;BME280;46321;48.398;11.754;2022-11-25T14:54:54;96765.88;;;9.53;61.96
60479;BME280;46321;48.398;11.754;2022-11-25T14:57:23;96763.41;;;9.51;61.87
60479;BME280;46321;48.398;11.754;2022-11-25T14:59:49;96770.84;;;9.47;62.51
60479;BME280;46321;48.398;11.754;2022-11-25T15:02:30;96766.50;;;9.30;62.92
60479;BME280;46321;48.398;11.754;2022-11-25T15:05:18;96776.06;;;9.31;62.99
60479;BME280;46321;48.398;11.754;2022-11-25T15:08:09;96776.53;;;9.26;63.05